createdAt,value
2024-03-28T00:01:00.977Z,3.23
2024-03-28T00:03:32.920Z,2.60
2024-03-28T00:06:04.992Z,2.10
2024-03-28T00:08:36.839Z,2.70
2024-03-28T00:11:08.847Z,2.57
2024-03-28T00:13:40.857Z,2.37
2024-03-28T00:16:12.685Z,2.50
2024-03-28T00:18:44.531Z,2.70
2024-03-28T00:21:16.521Z,2.77
2024-03-28T00:23:48.383Z,2.27
2024-03-28T00:26:20.470Z,2.63
2024-03-28T00:28:52.311Z,2.63
2024-03-28T00:31:24.371Z,2.90
2024-03-28T00:33:56.283Z,2.30
2024-03-28T00:36:28.242Z,2.47
2024-03-28T00:39:00.169Z,2.57
2024-03-28T00:41:32.137Z,2.83
2024-03-28T00:44:03.988Z,2.30
2024-03-28T00:46:35.915Z,2.30
2024-03-28T00:49:07.962Z,2.30
2024-03-28T00:51:39.930Z,2.30
2024-03-28T00:54:11.863Z,2.27
2024-03-28T00:56:43.815Z,2.07
2024-03-28T00:59:15.801Z,3.17
2024-03-28T01:01:47.819Z,2.40
2024-03-28T01:04:20.039Z,2.60
2024-03-28T01:06:51.977Z,2.43
2024-03-28T01:09:23.951Z,2.27
2024-03-28T01:11:55.888Z,2.50
2024-03-28T01:14:27.840Z,2.10
2024-03-28T01:17:00.054Z,2.00
2024-03-28T01:19:31.848Z,2.00
2024-03-28T01:22:03.841Z,2.30
2024-03-28T01:24:35.740Z,2.17
2024-03-28T01:27:07.686Z,2.40
2024-03-28T01:29:39.893Z,1.90
2024-03-28T01:32:11.840Z,2.30
2024-03-28T01:34:43.966Z,1.87
2024-03-28T01:37:15.912Z,2.40
2024-03-28T01:39:47.932Z,2.23
2024-03-28T01:42:19.899Z,2.40
2024-03-28T01:44:52.093Z,2.60
2024-03-28T01:47:41.920Z,2.10
2024-03-28T01:49:57.461Z,2.13
2024-03-28T01:52:29.406Z,2.30
2024-03-28T01:55:01.376Z,2.40
2024-03-28T01:57:33.250Z,2.40
2024-03-28T02:00:05.190Z,2.27
2024-03-28T02:02:38.847Z,2.57
2024-03-28T02:05:10.768Z,2.67
2024-03-28T02:07:42.681Z,2.40
2024-03-28T02:10:16.192Z,2.20
2024-03-28T02:12:48.093Z,2.33
2024-03-28T02:15:20.146Z,1.90
2024-03-28T02:17:51.974Z,2.23
2024-03-28T02:20:24.071Z,2.50
2024-03-28T02:22:56.574Z,2.47
2024-03-28T02:25:28.526Z,3.03
2024-03-28T02:28:00.481Z,2.43
2024-03-28T02:30:32.330Z,2.27
2024-03-28T02:33:04.193Z,2.37
2024-03-28T02:35:36.053Z,2.43
2024-03-28T02:38:07.943Z,2.50
2024-03-28T02:40:39.852Z,1.80
2024-03-28T02:43:11.816Z,2.33
2024-03-28T02:45:43.670Z,2.20
2024-03-28T02:48:15.464Z,2.53
2024-03-28T02:50:47.380Z,2.50
2024-03-28T02:53:19.183Z,2.20
2024-03-28T02:55:51.171Z,2.00
2024-03-28T02:58:23.094Z,1.80
2024-03-28T03:00:54.906Z,3.00
2024-03-28T03:03:26.800Z,1.97
2024-03-28T03:05:58.922Z,2.20
2024-03-28T03:08:30.908Z,2.17
2024-03-28T03:11:02.818Z,2.20
2024-03-28T03:13:34.771Z,1.70
2024-03-28T03:16:06.585Z,1.50
2024-03-28T03:18:38.521Z,1.70
2024-03-28T03:21:10.511Z,1.80
2024-03-28T03:23:42.336Z,1.60
2024-03-28T03:26:14.178Z,1.70
2024-03-28T03:28:46.018Z,1.80
2024-03-28T03:31:17.887Z,1.73
2024-03-28T03:33:49.736Z,1.80
2024-03-28T03:36:21.773Z,1.60
2024-03-28T03:38:53.632Z,1.57
2024-03-28T03:41:25.472Z,2.30
2024-03-28T03:43:57.299Z,1.60
2024-03-28T03:46:29.205Z,1.30
2024-03-28T03:49:01.110Z,1.40
2024-03-28T03:51:33.155Z,1.50
2024-03-28T03:54:05.184Z,1.47
2024-03-28T03:56:37.050Z,1.83
2024-03-28T03:59:08.896Z,1.70
2024-03-28T04:01:40.790Z,1.47
2024-03-28T04:04:12.652Z,1.37
2024-03-28T04:06:44.488Z,2.03
2024-03-28T04:09:16.400Z,1.70
2024-03-28T04:11:48.349Z,1.60
2024-03-28T04:14:20.359Z,1.70
2024-03-28T04:16:53.643Z,1.70
2024-03-28T04:19:25.486Z,1.80
2024-03-28T04:21:57.351Z,1.40
2024-03-28T04:24:29.157Z,1.40
2024-03-28T04:27:02.837Z,1.57
2024-03-28T04:29:35.302Z,1.50
2024-03-28T04:32:07.518Z,1.40
2024-03-28T04:34:39.367Z,1.63
2024-03-28T04:37:12.521Z,1.50
2024-03-28T04:39:44.742Z,1.20
2024-03-28T04:42:16.693Z,1.87
2024-03-28T04:44:48.602Z,1.40
2024-03-28T04:47:20.811Z,1.40
2024-03-28T04:49:52.603Z,1.53
2024-03-28T04:52:24.669Z,1.80
2024-03-28T04:54:56.754Z,1.27
2024-03-28T04:57:28.706Z,1.57
2024-03-28T05:00:00.592Z,1.40
2024-03-28T05:02:32.623Z,1.33
2024-03-28T05:05:04.548Z,1.50
2024-03-28T05:07:36.394Z,1.30
2024-03-28T05:10:08.300Z,1.60
2024-03-28T05:12:40.212Z,2.40
2024-03-28T05:15:12.108Z,1.37
2024-03-28T05:17:43.985Z,1.83
2024-03-28T05:20:15.837Z,1.30
2024-03-28T05:22:47.750Z,1.20
2024-03-28T05:25:19.643Z,1.50
2024-03-28T05:27:51.506Z,1.33
2024-03-28T05:30:23.401Z,1.50
2024-03-28T05:32:55.452Z,1.50
2024-03-28T05:35:27.723Z,1.27
2024-03-28T05:37:59.567Z,1.60
2024-03-28T05:40:31.657Z,1.50
2024-03-28T05:43:03.718Z,1.17
2024-03-28T05:45:35.677Z,1.50
2024-03-28T05:48:07.826Z,1.53
2024-03-28T05:50:39.809Z,1.50
2024-03-28T05:53:11.662Z,1.60
2024-03-28T05:55:43.646Z,1.57
2024-03-28T05:58:15.520Z,1.70
2024-03-28T06:00:47.382Z,1.40
2024-03-28T06:03:19.360Z,1.60
2024-03-28T06:05:51.386Z,1.53
2024-03-28T06:08:23.312Z,1.90
2024-03-28T06:10:55.250Z,1.50
2024-03-28T06:13:27.334Z,1.57
2024-03-28T06:15:59.672Z,1.57
2024-03-28T06:18:31.783Z,1.80
2024-03-28T06:21:03.790Z,1.50
2024-03-28T06:23:35.665Z,1.60
2024-03-28T06:26:07.506Z,1.27
2024-03-28T06:28:39.336Z,1.93
2024-03-28T06:31:11.168Z,1.70
2024-03-28T06:33:43.096Z,1.60
2024-03-28T06:36:15.554Z,1.70
2024-03-28T06:38:49.839Z,1.60
2024-03-28T06:41:21.694Z,1.40
2024-03-28T06:43:55.210Z,1.90
2024-03-28T06:46:27.149Z,1.93
2024-03-28T06:48:59.040Z,1.80
2024-03-28T06:51:30.847Z,1.60
2024-03-28T06:54:02.716Z,1.50
2024-03-28T06:56:34.600Z,1.73
2024-03-28T06:59:06.408Z,1.50
2024-03-28T07:01:38.271Z,2.00
2024-03-28T07:04:10.367Z,1.80
2024-03-28T07:06:42.250Z,2.43
2024-03-28T07:09:14.064Z,1.90
2024-03-28T07:11:45.959Z,1.90
2024-03-28T07:14:17.781Z,2.20
2024-03-28T07:16:49.608Z,2.10
2024-03-28T07:19:21.487Z,1.90
2024-03-28T07:21:53.294Z,2.30
2024-03-28T07:24:25.163Z,1.77
2024-03-28T07:26:56.991Z,1.90
2024-03-28T07:29:28.946Z,2.27
2024-03-28T07:32:00.743Z,3.00
2024-03-28T07:34:32.570Z,1.80
2024-03-28T07:37:04.523Z,1.97
2024-03-28T07:39:36.439Z,2.00
2024-03-28T07:42:08.318Z,1.73
2024-03-28T07:44:40.251Z,1.63
2024-03-28T07:47:12.150Z,1.60
2024-03-28T07:49:43.954Z,2.03
2024-03-28T07:52:16.259Z,1.70
2024-03-28T07:54:48.689Z,1.60
2024-03-28T07:57:20.599Z,1.40
2024-03-28T07:59:52.717Z,1.10
2024-03-28T08:02:24.504Z,1.30
2024-03-28T08:04:56.332Z,1.23
2024-03-28T08:07:28.387Z,1.40
2024-03-28T08:10:00.502Z,1.57
2024-03-28T08:12:32.344Z,1.50
2024-03-28T08:15:04.242Z,1.10
2024-03-28T08:17:36.567Z,1.07
2024-03-28T08:20:08.391Z,1.00
2024-03-28T08:22:40.204Z,0.40
2024-03-28T08:25:12.075Z,0.53
2024-03-28T08:27:43.883Z,0.60
2024-03-28T08:30:15.725Z,0.30
2024-03-28T08:32:47.531Z,0.40
2024-03-28T08:35:19.377Z,0.30
2024-03-28T08:37:53.439Z,0.43
2024-03-28T08:40:25.378Z,0.63
2024-03-28T08:42:59.152Z,0.60
2024-03-28T08:45:30.548Z,0.47
2024-03-28T08:48:02.373Z,0.50
2024-03-28T08:50:34.275Z,0.30
2024-03-28T08:53:06.870Z,0.30
2024-03-28T08:55:38.783Z,0.40
2024-03-28T08:58:11.169Z,0.33
2024-03-28T09:00:43.016Z,0.40
2024-03-28T09:03:14.823Z,0.50
2024-03-28T09:05:46.605Z,0.37
2024-03-28T09:08:18.444Z,0.40
2024-03-28T09:10:50.263Z,0.50
2024-03-28T09:13:22.084Z,0.40
2024-03-28T09:15:53.920Z,0.60
2024-03-28T09:18:25.797Z,0.70
2024-03-28T09:20:57.652Z,0.70
2024-03-28T09:23:29.502Z,0.60
2024-03-28T09:26:01.448Z,0.60
2024-03-28T09:28:33.294Z,0.73
2024-03-28T09:31:08.576Z,1.00
2024-03-28T09:33:38.830Z,0.80
2024-03-28T09:36:10.785Z,0.87
2024-03-28T09:38:42.658Z,1.00
2024-03-28T09:41:14.484Z,0.80
2024-03-28T09:43:46.322Z,0.90
2024-03-28T09:46:18.162Z,1.00
2024-03-28T09:48:50.011Z,1.20
2024-03-28T09:51:21.870Z,0.80
2024-03-28T09:53:53.755Z,1.03
2024-03-28T09:56:25.580Z,1.10
2024-03-28T09:58:58.239Z,1.10
2024-03-28T10:01:31.197Z,0.90
2024-03-28T10:04:03.458Z,1.30
2024-03-28T10:06:35.274Z,1.13
2024-03-28T10:09:07.121Z,1.40
2024-03-28T10:11:39.108Z,1.40
2024-03-28T10:14:10.949Z,1.33
2024-03-28T10:16:43.457Z,1.30
2024-03-28T10:19:15.230Z,1.30
2024-03-28T10:21:48.577Z,1.37
2024-03-28T10:24:20.483Z,1.30
2024-03-28T10:26:53.214Z,1.53
2024-03-28T10:29:25.731Z,1.10
2024-03-28T10:31:57.519Z,1.20
2024-03-28T10:34:29.439Z,1.40
2024-03-28T10:37:01.398Z,1.57
2024-03-28T10:39:33.241Z,1.37
2024-03-28T10:42:05.071Z,1.23
2024-03-28T10:44:36.934Z,1.20
2024-03-28T10:47:08.784Z,1.20
2024-03-28T10:49:42.570Z,1.23
2024-03-28T10:52:14.135Z,1.27
2024-03-28T10:54:45.989Z,1.40
2024-03-28T10:57:17.801Z,1.23
2024-03-28T10:59:49.702Z,0.90
2024-03-28T11:02:21.569Z,1.40
2024-03-28T11:04:53.433Z,1.33
2024-03-28T11:07:25.217Z,1.30
2024-03-28T11:09:57.216Z,1.47
2024-03-28T11:12:29.081Z,1.20
2024-03-28T11:15:01.154Z,1.07
2024-03-28T11:17:32.988Z,1.43
2024-03-28T11:20:04.817Z,0.93
2024-03-28T11:22:36.782Z,0.97
2024-03-28T11:25:08.779Z,1.00
2024-03-28T11:27:40.630Z,1.03
2024-03-28T11:30:12.469Z,1.00
2024-03-28T11:32:44.348Z,1.10
2024-03-28T11:35:16.253Z,1.17
2024-03-28T11:37:48.067Z,0.70
2024-03-28T11:40:19.959Z,1.00
2024-03-28T11:42:51.819Z,0.80
2024-03-28T11:45:23.620Z,1.07
2024-03-28T11:47:55.450Z,0.97
2024-03-28T11:50:29.583Z,1.07
2024-03-28T11:53:00.721Z,0.93
2024-03-28T11:55:32.844Z,0.80
2024-03-28T11:58:04.721Z,0.80
2024-03-28T12:00:36.531Z,0.80
2024-03-28T12:03:08.391Z,0.60
2024-03-28T12:05:40.449Z,0.60
2024-03-28T12:08:12.253Z,0.80
2024-03-28T12:10:44.167Z,0.60
2024-03-28T12:13:16.004Z,0.37
2024-03-28T12:15:47.990Z,0.50
2024-03-28T12:18:19.898Z,0.57
2024-03-28T12:20:51.963Z,0.70
2024-03-28T12:23:23.790Z,0.50
2024-03-28T12:25:55.637Z,0.50
2024-03-28T12:28:27.678Z,0.67
2024-03-28T12:30:59.523Z,0.53
2024-03-28T12:33:31.425Z,1.10
2024-03-28T12:36:03.265Z,0.70
2024-03-28T12:38:35.094Z,0.43
2024-03-28T12:41:06.961Z,0.80
2024-03-28T12:43:38.829Z,0.73
2024-03-28T12:46:10.704Z,0.80
2024-03-28T12:48:42.575Z,0.57
2024-03-28T12:51:14.443Z,0.87
2024-03-28T12:53:46.307Z,0.90
2024-03-28T12:56:18.181Z,0.80
2024-03-28T12:58:50.008Z,0.70
2024-03-28T13:01:21.833Z,0.50
2024-03-28T13:03:53.729Z,0.40
2024-03-28T13:06:27.099Z,0.40
2024-03-28T13:08:58.952Z,0.50
2024-03-28T13:11:31.050Z,0.40
2024-03-28T13:14:03.027Z,0.57
2024-03-28T13:16:35.080Z,0.40
2024-03-28T13:19:07.027Z,0.50
2024-03-28T13:21:39.159Z,0.57
2024-03-28T13:24:11.109Z,0.30
2024-03-28T13:26:54.687Z,0.40
2024-03-28T13:29:16.429Z,0.50
2024-03-28T13:31:48.316Z,0.20
2024-03-28T13:34:20.158Z,0.40
2024-03-28T13:36:52.228Z,0.20
2024-03-28T13:39:24.087Z,0.30
2024-03-28T13:41:55.935Z,0.47
2024-03-28T13:44:27.763Z,0.40
2024-03-28T13:46:59.626Z,0.30
2024-03-28T13:49:31.450Z,0.40
2024-03-28T13:52:03.375Z,0.50
2024-03-28T13:54:35.159Z,0.40
2024-03-28T13:57:07.026Z,0.40
2024-03-28T13:59:38.852Z,0.60
2024-03-28T14:02:10.746Z,0.47
2024-03-28T14:04:42.633Z,0.40
2024-03-28T14:07:14.457Z,0.40
2024-03-28T14:09:49.918Z,0.50
2024-03-28T14:12:19.700Z,0.40
2024-03-28T14:14:51.589Z,0.37
2024-03-28T14:17:23.461Z,0.20
2024-03-28T14:19:55.299Z,0.30
2024-03-28T14:22:27.125Z,0.27
2024-03-28T14:24:59.021Z,0.53
2024-03-28T14:27:30.867Z,0.23
2024-03-28T14:30:02.726Z,0.67
2024-03-28T14:32:34.660Z,0.60
2024-03-28T14:35:06.582Z,0.40
2024-03-28T14:37:38.487Z,0.50
2024-03-28T14:40:10.329Z,0.37
2024-03-28T14:42:42.179Z,0.40
2024-03-28T14:45:14.096Z,0.50
2024-03-28T14:47:45.982Z,0.30
2024-03-28T14:50:17.856Z,0.30
2024-03-28T14:52:49.732Z,0.47
2024-03-28T14:55:21.614Z,0.40
2024-03-28T14:57:53.408Z,0.30
2024-03-28T15:00:25.248Z,0.60
2024-03-28T15:02:57.104Z,0.60
2024-03-28T15:05:28.992Z,0.60
2024-03-28T15:08:00.848Z,0.53
2024-03-28T15:10:32.681Z,0.50
2024-03-28T15:13:04.534Z,0.80
2024-03-28T15:15:36.349Z,0.33
2024-03-28T15:18:08.283Z,0.30
2024-03-28T15:20:40.154Z,0.40
2024-03-28T15:23:12.035Z,0.30
2024-03-28T15:25:43.882Z,0.50
2024-03-28T15:28:15.726Z,0.27
2024-03-28T15:30:47.567Z,0.50
2024-03-28T15:33:19.429Z,0.23
2024-03-28T15:35:51.262Z,0.60
2024-03-28T15:38:23.139Z,0.50
2024-03-28T15:40:54.930Z,0.77
2024-03-28T15:43:26.787Z,0.40
2024-03-28T15:45:58.931Z,0.50
2024-03-28T15:48:31.045Z,0.50
2024-03-28T15:51:02.986Z,0.70
2024-03-28T15:53:34.818Z,0.40
2024-03-28T15:56:06.689Z,0.50
2024-03-28T15:58:38.523Z,0.37
2024-03-28T16:01:10.808Z,0.50
2024-03-28T16:03:42.632Z,0.40
2024-03-28T16:06:14.446Z,0.73
2024-03-28T16:08:46.313Z,0.40
2024-03-28T16:11:18.330Z,0.60
2024-03-28T16:13:50.191Z,0.30
2024-03-28T16:16:21.983Z,0.30
2024-03-28T16:18:53.792Z,0.60
2024-03-28T16:21:25.649Z,0.50
2024-03-28T16:23:57.487Z,0.33
2024-03-28T16:26:29.435Z,0.60
2024-03-28T16:29:09.523Z,0.40
2024-03-28T16:31:34.746Z,0.60
2024-03-28T16:34:07.114Z,0.43
2024-03-28T16:36:41.099Z,0.47
2024-03-28T16:39:13.294Z,0.50
2024-03-28T16:41:45.422Z,0.77
2024-03-28T16:44:17.549Z,0.73
2024-03-28T16:46:49.934Z,0.50
2024-03-28T16:49:21.741Z,0.83
2024-03-28T16:51:53.859Z,0.57
2024-03-28T16:54:28.281Z,0.50
2024-03-28T16:57:00.173Z,0.50
2024-03-28T16:59:31.991Z,0.47
2024-03-28T17:02:03.920Z,1.17
2024-03-28T17:04:36.554Z,0.67
2024-03-28T17:07:08.594Z,0.50
2024-03-28T17:09:40.442Z,0.57
2024-03-28T17:12:12.306Z,0.50
2024-03-28T17:14:44.192Z,0.90
2024-03-28T17:17:16.123Z,0.73
2024-03-28T17:19:48.260Z,0.80
2024-03-28T17:22:21.576Z,0.60
2024-03-28T17:24:56.042Z,0.63
2024-03-28T17:27:32.089Z,0.70
2024-03-28T17:30:00.708Z,0.70
2024-03-28T17:32:32.502Z,0.50
2024-03-28T17:35:04.356Z,0.80
2024-03-28T17:37:36.191Z,0.63
2024-03-28T17:40:08.017Z,0.53
2024-03-28T17:42:41.002Z,0.87
2024-03-28T17:45:13.089Z,0.63
2024-03-28T17:47:47.129Z,0.57
2024-03-28T17:50:18.388Z,1.33
2024-03-28T17:52:53.604Z,0.57
2024-03-28T17:55:23.672Z,1.00
2024-03-28T17:57:55.490Z,0.60
2024-03-28T18:00:27.368Z,0.60
2024-03-28T18:02:59.161Z,0.63
2024-03-28T18:05:31.200Z,0.60
2024-03-28T18:08:05.951Z,0.60
2024-03-28T18:10:36.544Z,0.80
2024-03-28T18:13:08.731Z,0.70
2024-03-28T18:15:40.609Z,0.67
2024-03-28T18:18:12.481Z,0.37
2024-03-28T18:20:44.306Z,0.63
2024-03-28T18:23:16.129Z,0.73
2024-03-28T18:25:48.000Z,0.70
2024-03-28T18:28:19.819Z,1.33
2024-03-28T18:30:51.980Z,0.70
2024-03-28T18:33:23.882Z,0.60
2024-03-28T18:35:55.734Z,1.10
2024-03-28T18:38:27.563Z,1.67
2024-03-28T18:40:59.704Z,1.30
2024-03-28T18:43:31.532Z,1.03
2024-03-28T18:46:03.384Z,0.60
2024-03-28T18:48:35.210Z,0.60
2024-03-28T18:51:07.046Z,0.77
2024-03-28T18:53:38.939Z,0.73
2024-03-28T18:56:10.931Z,0.70
2024-03-28T18:58:42.727Z,1.10
2024-03-28T19:01:14.571Z,0.70
2024-03-28T19:03:46.390Z,0.80
2024-03-28T19:06:18.245Z,1.13
2024-03-28T19:08:50.085Z,1.10
2024-03-28T19:11:21.922Z,1.03
2024-03-28T19:13:53.770Z,0.60
2024-03-28T19:16:25.668Z,1.00
2024-03-28T19:18:57.523Z,0.80
2024-03-28T19:21:29.587Z,0.70
2024-03-28T19:24:01.424Z,0.53
2024-03-28T19:26:33.287Z,1.00
2024-03-28T19:29:05.202Z,0.67
2024-03-28T19:31:37.083Z,0.73
2024-03-28T19:34:08.903Z,0.50
2024-03-28T19:36:40.741Z,0.83
2024-03-28T19:39:12.597Z,0.97
2024-03-28T19:41:44.428Z,0.50
2024-03-28T19:44:16.279Z,0.40
2024-03-28T19:46:48.120Z,0.73
2024-03-28T19:49:20.024Z,0.60
2024-03-28T19:51:51.851Z,0.77
2024-03-28T19:54:29.843Z,0.97
2024-03-28T19:56:57.237Z,0.70
2024-03-28T19:59:29.114Z,0.73
2024-03-28T20:02:00.929Z,0.80
2024-03-28T20:04:32.793Z,0.70
2024-03-28T20:07:06.215Z,0.60
2024-03-28T20:09:38.444Z,0.70
2024-03-28T20:12:10.319Z,0.80
2024-03-28T20:14:42.175Z,0.63
2024-03-28T20:17:14.009Z,0.50
2024-03-28T20:19:45.904Z,1.10
2024-03-28T20:22:17.823Z,0.60
2024-03-28T20:24:49.730Z,0.80
2024-03-28T20:27:21.563Z,0.90
2024-03-28T20:29:53.426Z,0.90
2024-03-28T20:32:25.274Z,0.60
2024-03-28T20:34:57.251Z,0.80
2024-03-28T20:37:29.131Z,0.40
2024-03-28T20:40:01.042Z,0.50
2024-03-28T20:42:32.929Z,0.50
2024-03-28T20:45:04.823Z,0.40
2024-03-28T20:47:36.641Z,0.60
2024-03-28T20:50:08.611Z,0.70
2024-03-28T20:52:40.438Z,0.30
2024-03-28T20:55:12.271Z,0.40
2024-03-28T20:57:47.333Z,0.40
2024-03-28T21:00:20.093Z,1.00
2024-03-28T21:02:52.195Z,0.60
2024-03-28T21:05:24.752Z,0.67
2024-03-28T21:07:57.412Z,0.60
2024-03-28T21:10:29.320Z,0.70
2024-03-28T21:13:01.322Z,0.53
2024-03-28T21:15:33.143Z,0.60
2024-03-28T21:18:05.372Z,1.00
2024-03-28T21:20:37.211Z,1.00
2024-03-28T21:23:09.072Z,0.90
2024-03-28T21:25:42.633Z,0.80
2024-03-28T21:28:14.463Z,0.50
2024-03-28T21:30:46.470Z,0.57
2024-03-28T21:33:18.314Z,0.63
2024-03-28T21:35:51.368Z,1.23
2024-03-28T21:38:23.583Z,0.80
2024-03-28T21:40:55.424Z,0.60
2024-03-28T21:43:28.371Z,0.80
2024-03-28T21:46:00.320Z,0.53
2024-03-28T21:48:34.238Z,0.40
2024-03-28T21:51:07.117Z,1.43
2024-03-28T21:53:40.709Z,0.60
2024-03-28T21:56:16.499Z,1.47
2024-03-28T21:58:53.384Z,0.60
2024-03-28T22:01:27.046Z,0.50
2024-03-28T22:04:00.012Z,0.70
2024-03-28T22:06:31.947Z,0.40
2024-03-28T22:09:04.483Z,0.60
2024-03-28T22:11:36.482Z,0.70
2024-03-28T22:14:08.347Z,0.83
2024-03-28T22:16:43.542Z,0.57
2024-03-28T22:19:13.816Z,0.63
2024-03-28T22:21:45.642Z,0.77
2024-03-28T22:24:17.461Z,0.50
2024-03-28T22:26:49.623Z,0.50
2024-03-28T22:29:21.568Z,1.10
2024-03-28T22:31:53.393Z,0.60
2024-03-28T22:34:25.249Z,1.43
2024-03-28T22:36:57.531Z,0.63
2024-03-28T22:39:30.212Z,0.73
2024-03-28T22:42:02.478Z,0.60
2024-03-28T22:44:36.350Z,0.70
2024-03-28T22:47:08.665Z,1.23
2024-03-28T22:49:40.525Z,0.67
2024-03-28T22:52:12.518Z,0.70
2024-03-28T22:54:44.343Z,0.63
2024-03-28T22:57:16.171Z,0.60
2024-03-28T22:59:48.053Z,0.67
2024-03-28T23:02:19.874Z,0.77
2024-03-28T23:04:53.275Z,0.60
2024-03-28T23:07:25.219Z,1.13
2024-03-28T23:09:58.481Z,0.60
2024-03-28T23:12:31.113Z,0.73
2024-03-28T23:15:03.103Z,0.90
2024-03-28T23:17:34.958Z,1.47
2024-03-28T23:20:06.836Z,0.50
2024-03-28T23:22:38.653Z,0.70
2024-03-28T23:25:10.499Z,0.97
2024-03-28T23:27:42.454Z,1.43
2024-03-28T23:30:14.528Z,0.67
2024-03-28T23:32:46.557Z,0.63
2024-03-28T23:35:18.447Z,0.60
2024-03-28T23:37:50.328Z,0.87
2024-03-28T23:40:22.929Z,0.57
2024-03-28T23:42:55.229Z,0.50
2024-03-28T23:45:27.059Z,0.53
2024-03-28T23:47:58.883Z,0.70
2024-03-28T23:50:30.712Z,1.20
2024-03-28T23:53:02.541Z,1.07
2024-03-28T23:55:34.375Z,1.43
2024-03-28T23:58:06.284Z,0.47
